Terminal Aerodrome Forecast
Issued by NWS Sioux Falls, SD

Home | Current Version | Previous Version | Graphics & Text | Print | Product List | Glossary On
Versions: 1 2 3 4 5 6 7 8 9 10 11 12 13 14
000
FTUS43 KFSD 151731
TAFSUX
TAF
KSUX 151731Z 1518/1618 33011KT P6SM BKN200
     FM152000 36013KT P6SM SCT007 OVC012
      TEMPO 1520/1522 BKN007
     FM152200 35016G24KT P6SM OVC010
     FM160000 34018G27KT 6SM -SN OVC022
     FM160300 34018G27KT P6SM BKN025
     FM160500 33016G24KT P6SM SCT050
     FM160700 33013KT P6SM FEW200
     FM161400 27004KT P6SM SKC=

USA.gov is the U.S. government's official web portal to all federal, state and local government web resources and services.